createdAt,value
2016-04-30T00:00:07.754Z,1011.3
2016-04-30T00:00:17.600Z,1011.3
2016-04-30T00:00:27.585Z,1011.26
2016-04-30T00:00:37.741Z,1011.3
2016-04-30T00:00:47.725Z,1011.26
2016-04-30T00:00:57.725Z,1011.28
2016-04-30T00:01:07.710Z,1011.33
2016-04-30T00:01:17.713Z,1011.28
2016-04-30T00:01:27.713Z,1011.3
2016-04-30T00:01:37.713Z,1011.29
2016-04-30T00:01:47.697Z,1011.31
2016-04-30T00:01:57.697Z,1011.3
2016-04-30T00:02:07.681Z,1011.3
2016-04-30T00:02:17.683Z,1011.32
2016-04-30T00:02:27.683Z,1011.34
2016-04-30T00:02:37.668Z,1011.29
2016-04-30T00:02:47.652Z,1011.3
2016-04-30T00:02:57.683Z,1011.32
2016-04-30T00:03:07.496Z,1011.29
2016-04-30T00:03:17.514Z,1011.3
2016-04-30T00:03:29.060Z,1011.31
2016-04-30T00:03:37.639Z,1011.28
2016-04-30T00:03:47.935Z,1011.31
2016-04-30T00:03:57.326Z,1011.32
2016-04-30T00:04:07.467Z,1011.3
2016-04-30T00:04:17.455Z,1011.28
2016-04-30T00:04:27.611Z,1011.3
2016-04-30T00:04:37.627Z,1011.29
2016-04-30T00:04:47.596Z,1011.3
2016-04-30T00:04:57.455Z,1011.28
2016-04-30T00:05:07.439Z,1011.3
2016-04-30T00:05:17.424Z,1011.29
2016-04-30T00:05:27.582Z,1011.3
2016-04-30T00:05:37.426Z,1011.29
2016-04-30T00:05:47.566Z,1011.29
2016-04-30T00:05:57.566Z,1011.28
2016-04-30T00:06:07.551Z,1011.27
2016-04-30T00:06:17.426Z,1011.3
2016-04-30T00:06:27.554Z,1011.29
2016-04-30T00:06:37.554Z,1011.28
2016-04-30T00:06:47.382Z,1011.29
2016-04-30T00:06:57.523Z,1011.27
2016-04-30T00:07:07.523Z,1011.26
2016-04-30T00:07:17.523Z,1011.33
2016-04-30T00:07:27.526Z,1011.29
2016-04-30T00:07:37.510Z,1011.31
2016-04-30T00:07:47.354Z,1011.27
2016-04-30T00:07:57.354Z,1011.26
2016-04-30T00:08:07.494Z,1011.28
2016-04-30T00:08:17.494Z,1011.32
2016-04-30T00:08:27.481Z,1011.28
2016-04-30T00:08:37.481Z,1011.3
2016-04-30T00:08:47.324Z,1011.3
2016-04-30T00:08:57.465Z,1011.26
2016-04-30T00:09:07.465Z,1011.26
2016-04-30T00:09:17.465Z,1011.28
2016-04-30T00:09:27.437Z,1011.3
2016-04-30T00:09:37.452Z,1011.29
2016-04-30T00:09:47.124Z,1011.28
2016-04-30T00:09:57.437Z,1011.29
2016-04-30T00:10:07.281Z,1011.29
2016-04-30T00:10:17.421Z,1011.34
2016-04-30T00:10:27.268Z,1011.28
2016-04-30T00:10:37.409Z,1011.27
2016-04-30T00:10:47.409Z,1011.27
2016-04-30T00:10:57.393Z,1011.26
2016-04-30T00:11:07.393Z,1011.3
2016-04-30T00:11:17.393Z,1011.26
2016-04-30T00:11:27.239Z,1011.27
2016-04-30T00:11:37.395Z,1011.26
2016-04-30T00:11:47.379Z,1011.28
2016-04-30T00:11:57.379Z,1011.29
2016-04-30T00:12:07.364Z,1011.28
2016-04-30T00:12:17.348Z,1011.31
2016-04-30T00:12:27.351Z,1011.3
2016-04-30T00:12:37.195Z,1011.31
2016-04-30T00:12:47.351Z,1011.3
2016-04-30T00:12:57.351Z,1011.28
2016-04-30T00:13:07.335Z,1011.28
2016-04-30T00:13:17.320Z,1011.32
2016-04-30T00:13:27.323Z,1011.3
2016-04-30T00:13:37.307Z,1011.28
2016-04-30T00:13:47.307Z,1011.29
2016-04-30T00:13:57.307Z,1011.28
2016-04-30T00:14:07.292Z,1011.32
2016-04-30T00:14:17.307Z,1011.32
2016-04-30T00:14:27.138Z,1011.31
2016-04-30T00:14:37.279Z,1011.31
2016-04-30T00:14:47.123Z,1011.29
2016-04-30T00:14:57.279Z,1011.29
2016-04-30T00:15:07.263Z,1011.3
2016-04-30T00:15:17.279Z,1011.33
2016-04-30T00:15:27.265Z,1011.28
2016-04-30T00:15:37.250Z,1011.32
2016-04-30T00:15:47.093Z,1011.3
2016-04-30T00:15:57.250Z,1011.25
2016-04-30T00:16:07.234Z,1011.35
2016-04-30T00:16:17.234Z,1011.26
2016-04-30T00:16:27.081Z,1011.29
2016-04-30T00:16:37.221Z,1011.31
2016-04-30T00:16:47.221Z,1011.35
2016-04-30T00:16:57.065Z,1011.34
2016-04-30T00:17:07.065Z,1011.33
2016-04-30T00:17:17.190Z,1011.32
2016-04-30T00:17:27.192Z,1011.34
2016-04-30T00:17:37.177Z,1011.33
2016-04-30T00:17:47.192Z,1011.3
2016-04-30T00:17:57.177Z,1011.32
2016-04-30T00:18:07.020Z,1011.31
2016-04-30T00:18:17.177Z,1011.33
2016-04-30T00:18:27.180Z,1011.3
2016-04-30T00:18:37.008Z,1011.31
2016-04-30T00:18:47.336Z,1011.26
2016-04-30T00:18:57.773Z,1011.29
2016-04-30T00:19:06.976Z,1011.25
2016-04-30T00:19:17.133Z,1011.26
2016-04-30T00:19:26.979Z,1011.27
2016-04-30T00:19:37.136Z,1011.3
2016-04-30T00:19:46.979Z,1011.25
2016-04-30T00:19:57.120Z,1011.27
2016-04-30T00:20:07.104Z,1011.28
2016-04-30T00:20:17.089Z,1011.29
2016-04-30T00:20:27.092Z,1011.27
2016-04-30T00:20:37.092Z,1011.23
2016-04-30T00:20:46.936Z,1011.3
2016-04-30T00:20:57.092Z,1011.18
2016-04-30T00:21:07.076Z,1011.28
2016-04-30T00:21:17.076Z,1011.26
2016-04-30T00:21:26.766Z,1011.26
2016-04-30T00:21:37.047Z,1011.28
2016-04-30T00:21:46.891Z,1011.24
2016-04-30T00:21:57.047Z,1011.27
2016-04-30T00:22:06.891Z,1011.23
2016-04-30T00:22:17.047Z,1011.27
2016-04-30T00:22:27.034Z,1011.28
2016-04-30T00:22:37.034Z,1011.24
2016-04-30T00:22:47.019Z,1011.31
2016-04-30T00:22:56.862Z,1011.25
2016-04-30T00:23:06.862Z,1011.23
2016-04-30T00:23:17.175Z,1011.28
2016-04-30T00:23:27.006Z,1011.3
2016-04-30T00:23:37.006Z,1011.27
2016-04-30T00:23:46.990Z,1011.27
2016-04-30T00:23:56.990Z,1011.22
2016-04-30T00:24:06.975Z,1011.25
2016-04-30T00:24:16.959Z,1011.25
2016-04-30T00:24:26.961Z,1011.26
2016-04-30T00:24:36.961Z,1011.27
2016-04-30T00:24:46.961Z,1011.24
2016-04-30T00:24:56.805Z,1011.21
2016-04-30T00:25:06.946Z,1011.24
2016-04-30T00:25:16.930Z,1011.23
2016-04-30T00:25:26.934Z,1011.23
2016-04-30T00:25:36.950Z,1011.22
2016-04-30T00:25:46.934Z,1011.22
2016-04-30T00:25:56.778Z,1011.22
2016-04-30T00:26:06.918Z,1011.23
2016-04-30T00:26:16.903Z,1011.23
2016-04-30T00:26:26.764Z,1011.27
2016-04-30T00:26:36.592Z,1011.22
2016-04-30T00:26:46.889Z,1011.21
2016-04-30T00:26:56.889Z,1011.21
2016-04-30T00:27:06.889Z,1011.22
2016-04-30T00:27:16.733Z,1011.19
2016-04-30T00:27:26.736Z,1011.24
2016-04-30T00:27:36.720Z,1011.21
2016-04-30T00:27:46.720Z,1011.21
2016-04-30T00:27:56.705Z,1011.2
2016-04-30T00:28:06.705Z,1011.2
2016-04-30T00:28:16.845Z,1011.21
2016-04-30T00:28:26.847Z,1011.22
2016-04-30T00:28:36.832Z,1011.19
2016-04-30T00:28:46.675Z,1011.17
2016-04-30T00:28:56.691Z,1011.18
2016-04-30T00:29:06.832Z,1011.19
2016-04-30T00:29:16.832Z,1011.21
2016-04-30T00:29:26.819Z,1011.21
2016-04-30T00:29:36.788Z,1011.18
2016-04-30T00:29:46.647Z,1011.22
2016-04-30T00:29:56.788Z,1011.2
2016-04-30T00:30:06.647Z,1011.24
2016-04-30T00:30:16.788Z,1011.2
2016-04-30T00:30:26.805Z,1011.16
2016-04-30T00:30:36.774Z,1011.17
2016-04-30T00:30:46.774Z,1011.16
2016-04-30T00:30:56.743Z,1011.16
2016-04-30T00:31:06.758Z,1011.17
2016-04-30T00:31:16.602Z,1011.16
2016-04-30T00:31:26.450Z,1011.17
2016-04-30T00:31:36.762Z,1011.19
2016-04-30T00:31:46.747Z,1011.18
2016-04-30T00:31:56.747Z,1011.16
2016-04-30T00:32:06.731Z,1011.16
2016-04-30T00:32:16.575Z,1011.19
2016-04-30T00:32:26.561Z,1011.13
2016-04-30T00:32:36.702Z,1011.14
2016-04-30T00:32:46.702Z,1011.19
2016-04-30T00:32:56.686Z,1011.2
2016-04-30T00:33:06.686Z,1011.19
2016-04-30T00:33:16.843Z,1011.18
2016-04-30T00:33:26.674Z,1011.18
2016-04-30T00:33:37.174Z,1011.14
2016-04-30T00:33:47.814Z,1011.2
2016-04-30T00:33:56.830Z,1011.2
2016-04-30T00:34:06.674Z,1011.2
2016-04-30T00:34:16.642Z,1011.19
2016-04-30T00:34:26.504Z,1011.2
2016-04-30T00:34:36.629Z,1011.24
2016-04-30T00:34:46.644Z,1011.22
2016-04-30T00:34:56.644Z,1011.19
2016-04-30T00:35:06.613Z,1011.22
2016-04-30T00:35:16.629Z,1011.23
2016-04-30T00:35:26.460Z,1011.16
2016-04-30T00:35:36.616Z,1011.21
2016-04-30T00:35:46.444Z,1011.18
2016-04-30T00:35:56.601Z,1011.16
2016-04-30T00:36:06.444Z,1011.18
2016-04-30T00:36:16.585Z,1011.17
2016-04-30T00:36:26.588Z,1011.21
2016-04-30T00:36:36.588Z,1011.21
2016-04-30T00:36:46.572Z,1011.22
2016-04-30T00:36:56.572Z,1011.14
2016-04-30T00:37:06.416Z,1011.15
2016-04-30T00:37:16.400Z,1011.19
2016-04-30T00:37:26.403Z,1011.19
2016-04-30T00:37:36.544Z,1011.13
2016-04-30T00:37:46.544Z,1011.17
2016-04-30T00:37:56.528Z,1011.17
2016-04-30T00:38:06.372Z,1011.18
2016-04-30T00:38:16.528Z,1011.14
2016-04-30T00:38:26.530Z,1011.17
2016-04-30T00:38:36.515Z,1011.15
2016-04-30T00:38:46.515Z,1011.14
2016-04-30T00:38:56.499Z,1011.19
2016-04-30T00:39:06.499Z,1011.18
2016-04-30T00:39:16.484Z,1011.15
2016-04-30T00:39:26.501Z,1011.17
2016-04-30T00:39:36.470Z,1011.18
2016-04-30T00:39:46.470Z,1011.18
2016-04-30T00:39:56.470Z,1011.16
2016-04-30T00:40:06.454Z,1011.16
2016-04-30T00:40:16.314Z,1011.17
2016-04-30T00:40:26.457Z,1011.19
2016-04-30T00:40:36.301Z,1011.16
2016-04-30T00:40:46.457Z,1011.18
2016-04-30T00:40:56.426Z,1011.15
2016-04-30T00:41:06.426Z,1011.15
2016-04-30T00:41:16.442Z,1011.15
2016-04-30T00:41:26.273Z,1011.14
2016-04-30T00:41:36.413Z,1011.15
2016-04-30T00:41:46.257Z,1011.17
2016-04-30T00:41:56.413Z,1011.12
2016-04-30T00:42:06.398Z,1011.14
2016-04-30T00:42:16.242Z,1011.12
2016-04-30T00:42:26.401Z,1011.11
2016-04-30T00:42:36.229Z,1011.16
2016-04-30T00:42:46.385Z,1011.15
2016-04-30T00:42:56.370Z,1011.13
2016-04-30T00:43:06.370Z,1011.14
2016-04-30T00:43:16.354Z,1011.14
2016-04-30T00:43:26.373Z,1011.14
2016-04-30T00:43:36.373Z,1011.13
2016-04-30T00:43:46.357Z,1011.12
2016-04-30T00:43:56.201Z,1011.13
2016-04-30T00:44:06.185Z,1011.15
2016-04-30T00:44:16.326Z,1011.19
2016-04-30T00:44:26.343Z,1011.17
2016-04-30T00:44:36.328Z,1011.15
2016-04-30T00:44:46.312Z,1011.2
2016-04-30T00:44:56.312Z,1011.15
2016-04-30T00:45:06.312Z,1011.19
2016-04-30T00:45:16.156Z,1011.16
2016-04-30T00:45:26.299Z,1011.18
2016-04-30T00:45:36.128Z,1011.17
2016-04-30T00:45:46.268Z,1011.16
2016-04-30T00:45:56.284Z,1011.19
2016-04-30T00:46:06.268Z,1011.14
2016-04-30T00:46:16.268Z,1011.14
2016-04-30T00:46:26.115Z,1011.18
2016-04-30T00:46:36.256Z,1011.17
2016-04-30T00:46:46.256Z,1011.2
2016-04-30T00:46:56.115Z,1011.17
2016-04-30T00:47:06.240Z,1011.16
2016-04-30T00:47:16.240Z,1011.19
2016-04-30T00:47:26.242Z,1011.21
2016-04-30T00:47:36.070Z,1011.18
2016-04-30T00:47:46.226Z,1011.2
2016-04-30T00:47:56.211Z,1011.21
2016-04-30T00:48:06.211Z,1011.22
2016-04-30T00:48:16.523Z,1011.23
2016-04-30T00:48:26.057Z,1011.21
2016-04-30T00:48:36.464Z,1011.2
2016-04-30T00:48:46.417Z,1011.2
2016-04-30T00:48:56.182Z,1011.22
2016-04-30T00:49:06.464Z,1011.19
2016-04-30T00:49:16.167Z,1011.18
2016-04-30T00:49:26.029Z,1011.27
2016-04-30T00:49:36.170Z,1011.23
2016-04-30T00:49:46.154Z,1011.19
2016-04-30T00:49:56.154Z,1011.23
2016-04-30T00:50:06.154Z,1011.24
2016-04-30T00:50:16.139Z,1011.21
2016-04-30T00:50:26.125Z,1011.19
2016-04-30T00:50:36.125Z,1011.22
2016-04-30T00:50:46.109Z,1011.21
2016-04-30T00:50:56.125Z,1011.2
2016-04-30T00:51:06.109Z,1011.24
2016-04-30T00:51:16.109Z,1011.21
2016-04-30T00:51:26.112Z,1011.22
2016-04-30T00:51:36.081Z,1011.2
2016-04-30T00:51:46.097Z,1011.26
2016-04-30T00:51:56.081Z,1011.26
2016-04-30T00:52:06.081Z,1011.25
2016-04-30T00:52:16.081Z,1011.27
2016-04-30T00:52:26.068Z,1011.29
2016-04-30T00:52:36.053Z,1011.31
2016-04-30T00:52:46.053Z,1011.22
2016-04-30T00:52:55.897Z,1011.29
2016-04-30T00:53:05.897Z,1011.28
2016-04-30T00:53:15.881Z,1011.26
2016-04-30T00:53:26.040Z,1011.24
2016-04-30T00:53:35.868Z,1011.22
2016-04-30T00:53:46.040Z,1011.22
2016-04-30T00:53:56.025Z,1011.24
2016-04-30T00:54:06.040Z,1011.24
2016-04-30T00:54:16.009Z,1011.28
2016-04-30T00:54:26.011Z,1011.22
2016-04-30T00:54:35.995Z,1011.24
2016-04-30T00:54:46.011Z,1011.23
2016-04-30T00:54:55.839Z,1011.23
2016-04-30T00:55:05.980Z,1011.25
2016-04-30T00:55:15.980Z,1011.25
2016-04-30T00:55:25.967Z,1011.27
2016-04-30T00:55:35.983Z,1011.25
2016-04-30T00:55:45.951Z,1011.25
2016-04-30T00:55:55.967Z,1011.26
2016-04-30T00:56:05.967Z,1011.29
2016-04-30T00:56:15.936Z,1011.27
2016-04-30T00:56:25.782Z,1011.26
2016-04-30T00:56:35.922Z,1011.25
2016-04-30T00:56:45.938Z,1011.23
2016-04-30T00:56:55.922Z,1011.26
2016-04-30T00:57:05.907Z,1011.24
2016-04-30T00:57:15.907Z,1011.28
2016-04-30T00:57:25.910Z,1011.25
2016-04-30T00:57:35.910Z,1011.28
2016-04-30T00:57:45.910Z,1011.27
2016-04-30T00:57:55.738Z,1011.24
2016-04-30T00:58:05.878Z,1011.22
2016-04-30T00:58:15.863Z,1011.24
2016-04-30T00:58:25.709Z,1011.22
2016-04-30T00:58:35.866Z,1011.22
2016-04-30T00:58:45.850Z,1011.27
2016-04-30T00:58:55.709Z,1011.21
2016-04-30T00:59:05.850Z,1011.23
2016-04-30T00:59:15.834Z,1011.24
2016-04-30T00:59:25.853Z,1011.26
2016-04-30T00:59:35.822Z,1011.27
2016-04-30T00:59:45.822Z,1011.28
2016-04-30T00:59:55.822Z,1011.24
2016-04-30T01:00:05.822Z,1011.25
2016-04-30T01:00:15.822Z,1011.25
2016-04-30T01:00:25.808Z,1011.23
2016-04-30T01:00:35.652Z,1011.27
2016-04-30T01:00:45.652Z,1011.26
2016-04-30T01:00:55.793Z,1011.24
2016-04-30T01:01:05.793Z,1011.28
2016-04-30T01:01:15.777Z,1011.26
2016-04-30T01:01:25.780Z,1011.25
2016-04-30T01:01:35.764Z,1011.23
2016-04-30T01:01:45.764Z,1011.22
2016-04-30T01:01:55.764Z,1011.26
2016-04-30T01:02:05.608Z,1011.25
2016-04-30T01:02:15.592Z,1011.26
2016-04-30T01:02:25.751Z,1011.27
2016-04-30T01:02:35.751Z,1011.3
2016-04-30T01:02:45.735Z,1011.28
2016-04-30T01:02:55.719Z,1011.27
2016-04-30T01:03:05.719Z,1011.28
2016-04-30T01:03:15.579Z,1011.26
2016-04-30T01:03:27.130Z,1011.27
2016-04-30T01:03:35.864Z,1011.28
2016-04-30T01:03:45.614Z,1011.25
2016-04-30T01:03:55.567Z,1011.3
2016-04-30T01:04:05.708Z,1011.27
2016-04-30T01:04:15.692Z,1011.27
2016-04-30T01:04:25.694Z,1011.25
2016-04-30T01:04:35.710Z,1011.27
2016-04-30T01:04:45.663Z,1011.25
2016-04-30T01:04:55.647Z,1011.23
2016-04-30T01:05:05.647Z,1011.29
2016-04-30T01:05:15.491Z,1011.29
2016-04-30T01:05:25.649Z,1011.24
2016-04-30T01:05:35.634Z,1011.28
2016-04-30T01:05:45.634Z,1011.3
2016-04-30T01:05:55.477Z,1011.26
2016-04-30T01:06:05.477Z,1011.24
2016-04-30T01:06:15.602Z,1011.28
2016-04-30T01:06:25.606Z,1011.29
2016-04-30T01:06:35.606Z,1011.26
2016-04-30T01:06:45.450Z,1011.25
2016-04-30T01:06:55.606Z,1011.27
2016-04-30T01:07:05.591Z,1011.22
2016-04-30T01:07:15.591Z,1011.21
2016-04-30T01:07:25.577Z,1011.29
2016-04-30T01:07:35.577Z,1011.21
2016-04-30T01:07:45.562Z,1011.27
2016-04-30T01:07:55.562Z,1011.28
2016-04-30T01:08:05.562Z,1011.21
2016-04-30T01:08:15.546Z,1011.22
2016-04-30T01:08:25.565Z,1011.25
2016-04-30T01:08:35.533Z,1011.23
2016-04-30T01:08:45.533Z,1011.27
2016-04-30T01:08:55.393Z,1011.27
2016-04-30T01:09:05.533Z,1011.24
2016-04-30T01:09:15.533Z,1011.23
2016-04-30T01:09:25.520Z,1011.23
2016-04-30T01:09:35.504Z,1011.29
2016-04-30T01:09:45.504Z,1011.25
2016-04-30T01:09:55.488Z,1011.24
2016-04-30T01:10:05.504Z,1011.22
2016-04-30T01:10:15.504Z,1011.28
2016-04-30T01:10:25.335Z,1011.24
2016-04-30T01:10:35.476Z,1011.23
2016-04-30T01:10:45.163Z,1011.29
2016-04-30T01:10:55.445Z,1011.25
2016-04-30T01:11:05.460Z,1011.25
2016-04-30T01:11:15.445Z,1011.28
2016-04-30T01:11:25.307Z,1011.26
2016-04-30T01:11:35.291Z,1011.31
2016-04-30T01:11:45.135Z,1011.25
2016-04-30T01:11:55.432Z,1011.23
2016-04-30T01:12:05.416Z,1011.25
2016-04-30T01:12:15.432Z,1011.23
2016-04-30T01:12:25.263Z,1011.26
2016-04-30T01:12:35.263Z,1011.26
2016-04-30T01:12:45.263Z,1011.28
2016-04-30T01:12:55.404Z,1011.28
2016-04-30T01:13:05.388Z,1011.3
2016-04-30T01:13:15.388Z,1011.28
2016-04-30T01:13:25.390Z,1011.3
2016-04-30T01:13:35.390Z,1011.28
2016-04-30T01:13:45.374Z,1011.36
2016-04-30T01:13:55.374Z,1011.27
2016-04-30T01:14:05.374Z,1011.29
2016-04-30T01:14:15.359Z,1011.31
2016-04-30T01:14:25.362Z,1011.3
2016-04-30T01:14:35.346Z,1011.26
2016-04-30T01:14:45.346Z,1011.25
2016-04-30T01:14:55.174Z,1011.31
2016-04-30T01:15:05.331Z,1011.27
2016-04-30T01:15:15.331Z,1011.27
2016-04-30T01:15:25.318Z,1011.29
2016-04-30T01:15:35.318Z,1011.28
2016-04-30T01:15:45.318Z,1011.27
2016-04-30T01:15:55.318Z,1011.28
2016-04-30T01:16:05.302Z,1011.27
2016-04-30T01:16:15.130Z,1011.33
2016-04-30T01:16:25.148Z,1011.32
2016-04-30T01:16:35.289Z,1011.28
2016-04-30T01:16:45.273Z,1011.29
2016-04-30T01:16:55.132Z,1011.28
2016-04-30T01:17:05.289Z,1011.25
2016-04-30T01:17:15.273Z,1011.3
2016-04-30T01:17:25.260Z,1011.32
2016-04-30T01:17:35.245Z,1011.33
2016-04-30T01:17:45.260Z,1011.34
2016-04-30T01:17:55.245Z,1011.35
2016-04-30T01:18:05.104Z,1011.3
2016-04-30T01:18:15.245Z,1011.27
2016-04-30T01:18:25.232Z,1011.31
2016-04-30T01:18:36.013Z,1011.34
2016-04-30T01:18:45.279Z,1011.32
2016-04-30T01:18:55.201Z,1011.3
2016-04-30T01:19:05.060Z,1011.38
2016-04-30T01:19:15.232Z,1011.32
2016-04-30T01:19:25.187Z,1011.31
2016-04-30T01:19:35.047Z,1011.35
2016-04-30T01:19:45.203Z,1011.32
2016-04-30T01:19:55.187Z,1011.28
2016-04-30T01:20:05.172Z,1011.31
2016-04-30T01:20:15.156Z,1011.32
2016-04-30T01:20:25.003Z,1011.32
2016-04-30T01:20:35.159Z,1011.36
2016-04-30T01:20:45.143Z,1011.3
2016-04-30T01:20:55.143Z,1011.31
2016-04-30T01:21:04.987Z,1011.34
2016-04-30T01:21:14.987Z,1011.31
2016-04-30T01:21:25.131Z,1011.31
2016-04-30T01:21:35.115Z,1011.31
2016-04-30T01:21:45.115Z,1011.32
2016-04-30T01:21:55.100Z,1011.34
2016-04-30T01:22:05.115Z,1011.3
2016-04-30T01:22:14.975Z,1011.32
2016-04-30T01:22:25.102Z,1011.35
2016-04-30T01:22:35.086Z,1011.33
2016-04-30T01:22:45.086Z,1011.31
2016-04-30T01:22:55.086Z,1011.31
2016-04-30T01:23:05.070Z,1011.31
2016-04-30T01:23:15.070Z,1011.31
2016-04-30T01:23:25.073Z,1011.37
2016-04-30T01:23:35.058Z,1011.33
2016-04-30T01:23:45.058Z,1011.35
2016-04-30T01:23:55.042Z,1011.35
2016-04-30T01:24:05.042Z,1011.33
2016-04-30T01:24:14.886Z,1011.42
2016-04-30T01:24:24.873Z,1011.37
2016-04-30T01:24:35.029Z,1011.38
2016-04-30T01:24:44.889Z,1011.32
2016-04-30T01:24:55.014Z,1011.35
2016-04-30T01:25:05.014Z,1011.32
2016-04-30T01:25:15.014Z,1011.42
2016-04-30T01:25:25.000Z,1011.33
2016-04-30T01:25:35.000Z,1011.33
2016-04-30T01:25:45.000Z,1011.34
2016-04-30T01:25:54.828Z,1011.35
2016-04-30T01:26:04.985Z,1011.32
2016-04-30T01:26:14.985Z,1011.34
2016-04-30T01:26:24.972Z,1011.39
2016-04-30T01:26:34.816Z,1011.4
2016-04-30T01:26:44.956Z,1011.38
2016-04-30T01:26:54.941Z,1011.37
2016-04-30T01:27:04.941Z,1011.39
2016-04-30T01:27:14.956Z,1011.37
2016-04-30T01:27:24.928Z,1011.38
2016-04-30T01:27:34.944Z,1011.42
2016-04-30T01:27:44.928Z,1011.41
2016-04-30T01:27:54.928Z,1011.39
2016-04-30T01:28:04.912Z,1011.43
2016-04-30T01:28:14.912Z,1011.42
2016-04-30T01:28:24.899Z,1011.45
2016-04-30T01:28:34.899Z,1011.41
2016-04-30T01:28:44.883Z,1011.44
2016-04-30T01:28:54.883Z,1011.42
2016-04-30T01:29:04.743Z,1011.44
2016-04-30T01:29:14.727Z,1011.49
2016-04-30T01:29:24.871Z,1011.41
2016-04-30T01:29:34.871Z,1011.4
2016-04-30T01:29:44.855Z,1011.42
2016-04-30T01:29:54.855Z,1011.41
2016-04-30T01:30:04.855Z,1011.43
2016-04-30T01:30:14.824Z,1011.44
2016-04-30T01:30:24.841Z,1011.38
2016-04-30T01:30:34.826Z,1011.38
2016-04-30T01:30:44.826Z,1011.43
2016-04-30T01:30:54.826Z,1011.4
2016-04-30T01:31:04.669Z,1011.44
2016-04-30T01:31:14.810Z,1011.44
2016-04-30T01:31:24.813Z,1011.39
2016-04-30T01:31:34.641Z,1011.41
2016-04-30T01:31:44.641Z,1011.41
2016-04-30T01:31:54.782Z,1011.38
2016-04-30T01:32:04.782Z,1011.42
2016-04-30T01:32:14.782Z,1011.42
2016-04-30T01:32:24.630Z,1011.41
2016-04-30T01:32:34.770Z,1011.43
2016-04-30T01:32:44.770Z,1011.44
2016-04-30T01:32:54.755Z,1011.43
2016-04-30T01:33:04.755Z,1011.44
2016-04-30T01:33:14.755Z,1011.43
2016-04-30T01:33:24.850Z,1011.45
2016-04-30T01:33:35.085Z,1011.46
2016-04-30T01:33:44.803Z,1011.4
2016-04-30T01:33:55.241Z,1011.42
2016-04-30T01:34:05.507Z,1011.43
2016-04-30T01:34:14.710Z,1011.43
2016-04-30T01:34:24.713Z,1011.45
2016-04-30T01:34:34.556Z,1011.47
2016-04-30T01:34:44.556Z,1011.47
2016-04-30T01:34:54.572Z,1011.48
2016-04-30T01:35:04.681Z,1011.48
2016-04-30T01:35:14.697Z,1011.47
2016-04-30T01:35:24.683Z,1011.48
2016-04-30T01:35:34.668Z,1011.48
2016-04-30T01:35:44.355Z,1011.43
2016-04-30T01:35:54.668Z,1011.47
2016-04-30T01:36:04.652Z,1011.49
2016-04-30T01:36:14.637Z,1011.5
2016-04-30T01:36:24.640Z,1011.5
2016-04-30T01:36:34.327Z,1011.47
2016-04-30T01:36:44.640Z,1011.5
2016-04-30T01:36:54.640Z,1011.46
2016-04-30T01:37:04.624Z,1011.45
2016-04-30T01:37:14.624Z,1011.48
2016-04-30T01:37:24.471Z,1011.51
2016-04-30T01:37:34.596Z,1011.47
2016-04-30T01:37:44.596Z,1011.5
2016-04-30T01:37:54.596Z,1011.48
2016-04-30T01:38:04.596Z,1011.49
2016-04-30T01:38:14.596Z,1011.52
2016-04-30T01:38:24.582Z,1011.53
2016-04-30T01:38:34.441Z,1011.49
2016-04-30T01:38:44.410Z,1011.48
2016-04-30T01:38:54.566Z,1011.5
2016-04-30T01:39:04.551Z,1011.48
2016-04-30T01:39:14.551Z,1011.53
2016-04-30T01:39:24.554Z,1011.5
2016-04-30T01:39:34.554Z,1011.52
2016-04-30T01:39:44.538Z,1011.54
2016-04-30T01:39:54.538Z,1011.54
2016-04-30T01:40:04.366Z,1011.56
2016-04-30T01:40:14.382Z,1011.51
2016-04-30T01:40:24.526Z,1011.53
2016-04-30T01:40:34.510Z,1011.52
2016-04-30T01:40:44.510Z,1011.5
2016-04-30T01:40:54.494Z,1011.51
2016-04-30T01:41:04.338Z,1011.51
2016-04-30T01:41:14.338Z,1011.51
2016-04-30T01:41:24.481Z,1011.49
2016-04-30T01:41:34.481Z,1011.52
2016-04-30T01:41:44.481Z,1011.51
2016-04-30T01:41:54.465Z,1011.54
2016-04-30T01:42:04.465Z,1011.51
2016-04-30T01:42:14.449Z,1011.52
2016-04-30T01:42:24.468Z,1011.54
2016-04-30T01:42:34.452Z,1011.51
2016-04-30T01:42:44.437Z,1011.54
2016-04-30T01:42:54.452Z,1011.54
2016-04-30T01:43:04.281Z,1011.53
2016-04-30T01:43:14.421Z,1011.53
2016-04-30T01:43:24.424Z,1011.52
2016-04-30T01:43:34.424Z,1011.52
2016-04-30T01:43:44.409Z,1011.52
2016-04-30T01:43:54.409Z,1011.53
2016-04-30T01:44:04.409Z,1011.6
2016-04-30T01:44:14.237Z,1011.56
2016-04-30T01:44:24.396Z,1011.55
2016-04-30T01:44:34.396Z,1011.52
2016-04-30T01:44:44.380Z,1011.57
2016-04-30T01:44:54.380Z,1011.57
2016-04-30T01:45:04.365Z,1011.58
2016-04-30T01:45:14.365Z,1011.54
2016-04-30T01:45:24.211Z,1011.5
2016-04-30T01:45:34.352Z,1011.52
2016-04-30T01:45:44.196Z,1011.51
2016-04-30T01:45:54.196Z,1011.56
2016-04-30T01:46:04.336Z,1011.54
2016-04-30T01:46:14.336Z,1011.52
2016-04-30T01:46:24.323Z,1011.55
2016-04-30T01:46:34.323Z,1011.54
2016-04-30T01:46:44.307Z,1011.54
2016-04-30T01:46:54.307Z,1011.53
2016-04-30T01:47:04.292Z,1011.49
2016-04-30T01:47:14.292Z,1011.5
2016-04-30T01:47:24.294Z,1011.51
2016-04-30T01:47:34.294Z,1011.55
2016-04-30T01:47:44.278Z,1011.57
2016-04-30T01:47:54.278Z,1011.56
2016-04-30T01:48:04.262Z,1011.55
2016-04-30T01:48:14.262Z,1011.51
2016-04-30T01:48:24.890Z,1011.53
2016-04-30T01:48:34.812Z,1011.53
2016-04-30T01:48:44.250Z,1011.5
2016-04-30T01:48:54.250Z,1011.51
2016-04-30T01:49:04.250Z,1011.52
2016-04-30T01:49:14.515Z,1011.54
2016-04-30T01:49:24.253Z,1011.49
2016-04-30T01:49:34.221Z,1011.53
2016-04-30T01:49:44.065Z,1011.54
2016-04-30T01:49:54.221Z,1011.5
2016-04-30T01:50:04.206Z,1011.49
2016-04-30T01:50:14.050Z,1011.51
2016-04-30T01:50:24.192Z,1011.52
2016-04-30T01:50:34.192Z,1011.54
2016-04-30T01:50:44.177Z,1011.53
2016-04-30T01:50:54.177Z,1011.47
2016-04-30T01:51:04.177Z,1011.54
2016-04-30T01:51:14.161Z,1011.52
2016-04-30T01:51:24.165Z,1011.54
2016-04-30T01:51:34.149Z,1011.52
2016-04-30T01:51:44.149Z,1011.53
2016-04-30T01:51:54.149Z,1011.54
2016-04-30T01:52:04.134Z,1011.55
2016-04-30T01:52:14.149Z,1011.54
2016-04-30T01:52:24.136Z,1011.55
2016-04-30T01:52:34.136Z,1011.47
2016-04-30T01:52:43.964Z,1011.52
2016-04-30T01:52:54.104Z,1011.54
2016-04-30T01:53:03.948Z,1011.54
2016-04-30T01:53:14.104Z,1011.57
2016-04-30T01:53:24.107Z,1011.54
2016-04-30T01:53:34.107Z,1011.55
2016-04-30T01:53:43.936Z,1011.54
2016-04-30T01:53:54.092Z,1011.55
2016-04-30T01:54:04.076Z,1011.53
2016-04-30T01:54:13.936Z,1011.56
2016-04-30T01:54:23.766Z,1011.56
2016-04-30T01:54:33.906Z,1011.54
2016-04-30T01:54:44.063Z,1011.57
2016-04-30T01:54:54.047Z,1011.55
2016-04-30T01:55:03.891Z,1011.56
2016-04-30T01:55:14.031Z,1011.56
2016-04-30T01:55:24.034Z,1011.55
2016-04-30T01:55:34.034Z,1011.52
2016-04-30T01:55:44.019Z,1011.54
2016-04-30T01:55:54.019Z,1011.54
2016-04-30T01:56:04.003Z,1011.49
2016-04-30T01:56:13.987Z,1011.54
2016-04-30T01:56:23.990Z,1011.53
2016-04-30T01:56:34.006Z,1011.52
2016-04-30T01:56:43.834Z,1011.51
2016-04-30T01:56:53.990Z,1011.52
2016-04-30T01:57:03.975Z,1011.46
2016-04-30T01:57:13.975Z,1011.52
2016-04-30T01:57:23.821Z,1011.5
2016-04-30T01:57:33.961Z,1011.48
2016-04-30T01:57:43.961Z,1011.49
2016-04-30T01:57:53.977Z,1011.48
2016-04-30T01:58:03.961Z,1011.51
2016-04-30T01:58:13.946Z,1011.46
2016-04-30T01:58:23.933Z,1011.49
2016-04-30T01:58:33.933Z,1011.52
2016-04-30T01:58:43.777Z,1011.53
2016-04-30T01:58:53.933Z,1011.5
2016-04-30T01:59:03.792Z,1011.48
2016-04-30T01:59:13.933Z,1011.48
2016-04-30T01:59:23.764Z,1011.45
2016-04-30T01:59:33.889Z,1011.47
2016-04-30T01:59:43.889Z,1011.45
2016-04-30T01:59:53.748Z,1011.46
2016-04-30T02:00:03.889Z,1011.48
2016-04-30T02:00:13.748Z,1011.5
2016-04-30T02:00:23.892Z,1011.49
2016-04-30T02:00:33.876Z,1011.53
2016-04-30T02:00:43.876Z,1011.5
2016-04-30T02:00:53.861Z,1011.51
2016-04-30T02:01:03.705Z,1011.52
2016-04-30T02:01:13.845Z,1011.49
2016-04-30T02:01:23.691Z,1011.5